Terminal Aerodrome Forecast
Issued by NWS

Home | Current Version | Previous Version | Graphics & Text | Print | Product List | Glossary On
Versions: 1 2 3 4 5 6 7 8 9 10 11 12 13 14 15 16 17 18 19 20 21 22 23 24 25 26 27 28 29 30 31 32 33 34 35 36 37 38 39 40 41
202
FTUS43 KLOT 240259 AAA
TAFGYY
TAF AMD
KGYY 240259Z 2403/2424 05005KT P6SM VCSH SCT025 OVC035
      TEMPO 2404/2408 -RA BKN025
     FM240800 04005KT P6SM VCSH BKN008 OVC012
     FM241700 36010KT P6SM VCSH SCT008 OVC014=

USA.gov is the U.S. government's official web portal to all federal, state and local government web resources and services.